createdAt,value
2023-02-09T00:00:23.558Z,-0.80
2023-02-09T00:07:24.061Z,-0.90
2023-02-09T00:14:24.597Z,-1.00
2023-02-09T00:21:25.055Z,-1.00
2023-02-09T00:28:25.571Z,-1.00
2023-02-09T00:35:25.973Z,-1.10
2023-02-09T00:42:27.852Z,-1.10
2023-02-09T00:49:28.997Z,-1.10
2023-02-09T00:56:29.162Z,-1.10
2023-02-09T01:03:29.514Z,-1.20
2023-02-09T01:10:29.937Z,-1.30
2023-02-09T01:17:30.407Z,-1.30
2023-02-09T01:24:30.795Z,-1.30
2023-02-09T01:31:34.247Z,-1.20
2023-02-09T01:38:34.554Z,-1.20
2023-02-09T01:45:49.889Z,-1.20
2023-02-09T01:52:50.594Z,-1.20
2023-02-09T02:00:00.845Z,-1.20
2023-02-09T02:07:11.860Z,-1.20
2023-02-09T02:14:34.053Z,-1.20
2023-02-09T02:21:44.391Z,-1.10
2023-02-09T02:29:10.736Z,-1.10
2023-02-09T02:37:00.121Z,-1.10
2023-02-09T02:44:08.386Z,-1.00
2023-02-09T02:51:15.790Z,-1.10
2023-02-09T02:58:19.590Z,-1.10
2023-02-09T03:05:23.146Z,-1.10
2023-02-09T03:12:51.405Z,-1.10
2023-02-09T03:20:13.058Z,-1.10
2023-02-09T03:27:24.591Z,-1.20
2023-02-09T03:34:25.104Z,-1.20
2023-02-09T03:41:25.589Z,-1.30
2023-02-09T03:48:26.054Z,-1.30
2023-02-09T03:55:26.886Z,-1.40
2023-02-09T04:02:27.388Z,-1.50
2023-02-09T04:09:28.217Z,-1.50
2023-02-09T04:16:28.242Z,-1.60
2023-02-09T04:23:28.435Z,-1.60
2023-02-09T04:30:29.003Z,-1.70
2023-02-09T04:37:29.519Z,-1.70
2023-02-09T04:44:29.919Z,-1.80
2023-02-09T04:51:30.428Z,-1.80
2023-02-09T04:58:49.463Z,-1.80
2023-02-09T05:05:49.904Z,-1.80
2023-02-09T05:12:50.296Z,-1.90
2023-02-09T05:19:50.974Z,-1.80
2023-02-09T05:26:51.383Z,-1.80
2023-02-09T05:33:51.945Z,-1.70
2023-02-09T05:40:52.711Z,-1.60
2023-02-09T05:47:53.447Z,-1.60
2023-02-09T05:54:53.687Z,-1.60
2023-02-09T06:01:54.143Z,-1.70
2023-02-09T06:08:54.599Z,-1.80
2023-02-09T06:15:55.054Z,-1.80
2023-02-09T06:22:55.359Z,-1.90
2023-02-09T06:29:55.814Z,-2.00
2023-02-09T06:36:56.314Z,-2.10
2023-02-09T06:43:56.894Z,-2.00
2023-02-09T06:50:57.365Z,-2.10
2023-02-09T06:57:57.882Z,-2.10
2023-02-09T07:10:10.946Z,-2.10
2023-02-09T07:17:11.068Z,-2.10
2023-02-09T07:24:11.562Z,-2.00
2023-02-09T07:31:14.482Z,-2.00
2023-02-09T07:38:15.034Z,-1.90
2023-02-09T07:45:15.738Z,-1.90
2023-02-09T07:52:16.699Z,-1.80
2023-02-09T07:59:16.643Z,-1.70
2023-02-09T08:06:41.609Z,-1.50
2023-02-09T08:13:43.406Z,-1.30
2023-02-09T08:20:45.612Z,-1.10
2023-02-09T08:27:46.204Z,-1.00
2023-02-09T08:34:46.568Z,-0.70
2023-02-09T08:41:46.966Z,-0.60
2023-02-09T08:48:47.651Z,-0.40
2023-02-09T08:55:49.117Z,-0.20
2023-02-09T09:02:49.433Z,-0.10
2023-02-09T09:09:49.812Z,0.10
2023-02-09T09:16:50.167Z,0.20
2023-02-09T09:23:50.649Z,0.40
2023-02-09T09:30:51.168Z,0.60
2023-02-09T09:37:51.489Z,0.70
2023-02-09T09:44:54.216Z,0.70
2023-02-09T09:52:01.723Z,0.90
2023-02-09T09:59:02.484Z,1.00
2023-02-09T10:06:19.483Z,1.20
2023-02-09T10:13:32.176Z,1.30
2023-02-09T10:20:50.670Z,1.50
2023-02-09T10:27:51.112Z,1.70
2023-02-09T10:34:53.725Z,1.90
2023-02-09T10:41:55.319Z,2.10
2023-02-09T10:48:55.484Z,2.30
2023-02-09T10:56:07.206Z,2.50
2023-02-09T11:03:22.805Z,2.70
2023-02-09T11:10:24.406Z,2.80
2023-02-09T11:17:40.036Z,2.90
2023-02-09T11:25:00.134Z,3.00
2023-02-09T11:32:14.134Z,3.10
2023-02-09T11:39:19.892Z,3.30
2023-02-09T11:46:23.946Z,3.50
2023-02-09T11:53:58.206Z,3.60
2023-02-09T12:01:27.591Z,3.80
2023-02-09T12:08:38.782Z,3.90
2023-02-09T12:15:48.780Z,4.10
2023-02-09T12:23:01.099Z,4.20
2023-02-09T12:30:01.456Z,4.40
2023-02-09T12:37:30.036Z,4.60
2023-02-09T12:44:30.122Z,4.80
2023-02-09T12:51:50.053Z,5.00
2023-02-09T12:58:50.411Z,5.10
2023-02-09T13:05:55.856Z,5.30
2023-02-09T13:13:25.331Z,5.40
2023-02-09T13:21:01.693Z,5.50
2023-02-09T13:28:28.378Z,5.60
2023-02-09T13:35:38.682Z,5.70
2023-02-09T13:42:57.847Z,5.90
2023-02-09T13:50:22.701Z,6.20
2023-02-09T13:57:36.090Z,6.40
2023-02-09T14:04:36.553Z,6.50
2023-02-09T14:11:46.821Z,6.70
2023-02-09T14:18:58.403Z,6.70
2023-02-09T14:26:16.488Z,6.80
2023-02-09T14:33:24.603Z,7.10
2023-02-09T14:40:34.258Z,7.30
2023-02-09T14:47:43.780Z,7.50
2023-02-09T14:54:48.189Z,7.40
2023-02-09T15:01:51.049Z,7.20
2023-02-09T15:08:51.148Z,7.20
2023-02-09T15:15:51.597Z,7.10
2023-02-09T15:22:53.184Z,7.10
2023-02-09T15:29:54.767Z,6.90
2023-02-09T15:36:55.182Z,6.80
2023-02-09T15:44:14.076Z,6.70
2023-02-09T15:51:15.501Z,6.60
2023-02-09T15:58:19.225Z,6.50
2023-02-09T16:05:19.944Z,6.40
2023-02-09T16:12:20.374Z,6.20
2023-02-09T16:19:21.180Z,5.90
2023-02-09T16:26:24.192Z,5.80
2023-02-09T16:33:25.805Z,5.60
2023-02-09T16:40:31.720Z,5.50
2023-02-09T16:47:32.332Z,5.30
2023-02-09T16:54:40.214Z,5.10
2023-02-09T17:01:40.698Z,4.80
2023-02-09T17:08:41.260Z,4.60
2023-02-09T17:15:45.571Z,4.40
2023-02-09T17:22:48.156Z,4.20
2023-02-09T17:29:48.425Z,3.90
2023-02-09T17:36:49.074Z,3.70
2023-02-09T17:43:50.630Z,3.50
2023-02-09T17:50:52.753Z,3.20
2023-02-09T17:57:57.253Z,3.00
2023-02-09T18:04:57.470Z,2.80
2023-02-09T18:12:04.244Z,2.70
2023-02-09T18:19:04.397Z,2.50
2023-02-09T18:26:06.021Z,2.30
2023-02-09T18:33:07.147Z,2.20
2023-02-09T18:40:07.388Z,2.00
2023-02-09T18:47:10.468Z,1.90
2023-02-09T18:54:10.830Z,2.00
2023-02-09T19:01:13.093Z,2.00
2023-02-09T19:08:13.900Z,2.10
2023-02-09T19:15:17.312Z,2.10
2023-02-09T19:22:20.891Z,2.20
2023-02-09T19:29:22.604Z,2.20
2023-02-09T19:36:24.172Z,2.20
2023-02-09T19:43:24.698Z,2.30
2023-02-09T19:50:25.029Z,2.30
2023-02-09T19:57:25.504Z,2.40
2023-02-09T20:04:25.861Z,2.50
2023-02-09T20:11:26.805Z,2.60
2023-02-09T20:18:27.344Z,2.60
2023-02-09T20:25:27.404Z,2.70
2023-02-09T20:32:28.817Z,2.70
2023-02-09T20:39:28.986Z,2.70
2023-02-09T20:46:49.757Z,2.80
2023-02-09T20:53:50.066Z,2.80
2023-02-09T21:00:51.082Z,2.90
2023-02-09T21:07:52.081Z,2.90
2023-02-09T21:14:53.364Z,2.90
2023-02-09T21:21:53.755Z,3.00
2023-02-09T21:28:58.578Z,3.00
2023-02-09T21:35:58.721Z,3.00
2023-02-09T21:42:59.027Z,3.00
2023-02-09T21:49:59.839Z,2.90
2023-02-09T21:57:01.248Z,2.90
2023-02-09T22:04:01.690Z,2.80
2023-02-09T22:11:05.951Z,2.80
2023-02-09T22:18:06.251Z,2.70
2023-02-09T22:25:07.094Z,2.60
2023-02-09T22:32:07.408Z,2.50
2023-02-09T22:39:07.922Z,2.50
2023-02-09T22:46:08.460Z,2.50
2023-02-09T22:53:08.837Z,2.40
2023-02-09T23:00:11.929Z,2.50
2023-02-09T23:07:12.423Z,2.50
2023-02-09T23:14:13.517Z,2.50
2023-02-09T23:21:13.696Z,2.50
2023-02-09T23:28:15.365Z,2.40
2023-02-09T23:35:17.418Z,2.40
2023-02-09T23:42:17.436Z,2.50
2023-02-09T23:49:17.934Z,2.40
2023-02-09T23:56:19.089Z,2.50
